createdAt,value
2018-07-25T00:00:35.802Z,16.97
2018-07-25T00:03:04.224Z,15.93
2018-07-25T00:05:32.552Z,16.77
2018-07-25T00:08:00.947Z,17.37
2018-07-25T00:10:34.577Z,16.80
2018-07-25T00:13:02.751Z,16.13
2018-07-25T00:15:34.061Z,15.60
2018-07-25T00:18:03.055Z,15.37
2018-07-25T00:20:31.652Z,14.83
2018-07-25T00:23:00.430Z,14.23
2018-07-25T00:25:29.316Z,15.03
2018-07-25T00:27:58.211Z,16.13
2018-07-25T00:30:26.494Z,16.93
2018-07-25T00:32:54.717Z,15.87
2018-07-25T00:35:22.934Z,15.53
2018-07-25T00:37:51.163Z,16.20
2018-07-25T00:40:19.481Z,17.07
2018-07-25T00:42:47.731Z,16.87
2018-07-25T00:45:15.938Z,16.07
2018-07-25T00:47:44.125Z,16.97
2018-07-25T00:50:12.308Z,17.17
2018-07-25T00:52:40.505Z,14.87
2018-07-25T00:55:08.815Z,15.67
2018-07-25T00:57:37.008Z,15.23
2018-07-25T01:00:05.485Z,17.30
2018-07-25T01:02:33.734Z,16.37
2018-07-25T01:05:01.945Z,16.30
2018-07-25T01:07:30.334Z,16.77
2018-07-25T01:09:58.666Z,16.73
2018-07-25T01:12:26.923Z,15.77
2018-07-25T01:14:55.136Z,18.80
2018-07-25T01:17:23.376Z,17.17
2018-07-25T01:19:51.631Z,17.67
2018-07-25T01:22:19.833Z,17.80
2018-07-25T01:24:48.060Z,17.67
2018-07-25T01:27:16.279Z,17.47
2018-07-25T01:29:44.482Z,18.40
2018-07-25T01:32:12.678Z,18.17
2018-07-25T01:34:40.947Z,19.47
2018-07-25T01:37:09.186Z,18.20
2018-07-25T01:39:37.425Z,18.23
2018-07-25T01:42:05.863Z,19.27
2018-07-25T01:44:34.099Z,18.50
2018-07-25T01:47:02.304Z,19.63
2018-07-25T01:49:30.532Z,19.90
2018-07-25T01:51:58.756Z,18.83
2018-07-25T01:54:26.964Z,19.50
2018-07-25T01:56:55.155Z,19.63
2018-07-25T01:59:26.247Z,18.90
2018-07-25T02:01:54.598Z,20.90
2018-07-25T02:04:22.827Z,19.17
2018-07-25T02:06:51.052Z,20.60
2018-07-25T02:09:19.231Z,20.37
2018-07-25T02:11:47.448Z,20.80
2018-07-25T02:14:15.617Z,18.97
2018-07-25T02:16:43.870Z,20.10
2018-07-25T02:19:11.807Z,21.07
2018-07-25T02:21:39.997Z,21.17
2018-07-25T02:24:08.196Z,21.97
2018-07-25T02:26:36.181Z,21.67
2018-07-25T02:29:04.386Z,23.17
2018-07-25T02:31:32.682Z,23.67
2018-07-25T02:34:06.205Z,23.33
2018-07-25T02:36:34.439Z,24.20
2018-07-25T02:39:02.703Z,23.40
2018-07-25T02:41:30.864Z,22.93
2018-07-25T02:43:59.068Z,23.93
2018-07-25T02:46:27.262Z,25.30
2018-07-25T02:48:55.468Z,24.50
2018-07-25T02:51:23.714Z,23.93
2018-07-25T02:53:51.950Z,24.20
2018-07-25T02:56:20.148Z,23.23
2018-07-25T02:58:48.311Z,22.33
2018-07-25T03:01:16.571Z,22.40
2018-07-25T03:03:44.761Z,23.30
2018-07-25T03:06:12.935Z,22.97
2018-07-25T03:08:41.124Z,23.40
2018-07-25T03:11:09.307Z,24.73
2018-07-25T03:13:37.482Z,26.57
2018-07-25T03:16:07.012Z,25.33
2018-07-25T03:18:35.388Z,23.70
2018-07-25T03:21:03.685Z,24.90
2018-07-25T03:23:33.240Z,26.27
2018-07-25T03:26:01.392Z,28.10
2018-07-25T03:28:29.895Z,27.13
2018-07-25T03:30:58.473Z,27.67
2018-07-25T03:33:26.972Z,28.53
2018-07-25T03:35:56.375Z,28.23
2018-07-25T03:38:24.740Z,27.57
2018-07-25T03:40:52.876Z,25.87
2018-07-25T03:43:21.030Z,26.10
2018-07-25T03:45:49.174Z,27.20
2018-07-25T03:48:17.310Z,26.27
2018-07-25T03:50:45.491Z,25.63
2018-07-25T03:53:13.731Z,28.33
2018-07-25T03:55:41.902Z,29.43
2018-07-25T03:58:10.065Z,27.93
2018-07-25T04:00:38.302Z,28.13
2018-07-25T04:03:06.453Z,27.77
2018-07-25T04:05:34.615Z,28.63
2018-07-25T04:08:02.784Z,27.20
2018-07-25T04:10:30.987Z,26.63
2018-07-25T04:12:59.223Z,26.70
2018-07-25T04:15:27.420Z,26.40
2018-07-25T04:17:55.591Z,25.70
2018-07-25T04:20:23.800Z,27.63
2018-07-25T04:22:52.063Z,26.23
2018-07-25T04:25:20.408Z,26.57
2018-07-25T04:27:48.735Z,27.03
2018-07-25T04:30:17.691Z,26.07
2018-07-25T04:32:46.159Z,26.63
2018-07-25T04:35:15.731Z,26.43
2018-07-25T04:37:44.380Z,26.30
2018-07-25T04:40:12.646Z,25.57
2018-07-25T04:42:40.892Z,26.80
2018-07-25T04:45:10.273Z,24.93
2018-07-25T04:47:38.664Z,26.60
2018-07-25T04:50:07.243Z,23.97
2018-07-25T04:52:35.541Z,25.63
2018-07-25T04:55:04.461Z,23.80
2018-07-25T04:57:32.487Z,23.50
2018-07-25T05:00:00.729Z,21.67
2018-07-25T05:02:29.093Z,20.73
2018-07-25T05:04:57.307Z,22.53
2018-07-25T05:07:25.565Z,19.70
2018-07-25T05:09:53.789Z,18.57
2018-07-25T05:12:21.990Z,18.33
2018-07-25T05:14:50.280Z,17.80
2018-07-25T05:17:18.269Z,18.23
2018-07-25T05:19:46.455Z,18.23
2018-07-25T05:22:14.619Z,19.60
2018-07-25T05:24:42.772Z,19.40
2018-07-25T05:27:11.074Z,19.73
2018-07-25T05:29:39.223Z,19.97
2018-07-25T05:32:07.427Z,20.80
2018-07-25T05:34:35.586Z,17.33
2018-07-25T05:37:03.782Z,18.03
2018-07-25T05:39:34.100Z,17.53
2018-07-25T05:42:02.360Z,16.83
2018-07-25T05:44:30.603Z,16.80
2018-07-25T05:46:58.810Z,15.80
2018-07-25T05:49:27.036Z,16.13
2018-07-25T05:51:58.687Z,15.80
2018-07-25T05:54:27.081Z,16.07
2018-07-25T05:56:55.336Z,16.03
2018-07-25T05:59:23.976Z,16.00
2018-07-25T06:01:52.198Z,15.00
2018-07-25T06:04:20.517Z,14.67
2018-07-25T06:06:48.658Z,16.17
2018-07-25T06:09:16.833Z,16.37
2018-07-25T06:11:45.005Z,14.77
2018-07-25T06:14:13.196Z,16.03
2018-07-25T06:16:41.199Z,16.10
2018-07-25T06:19:09.687Z,16.30
2018-07-25T06:21:38.511Z,15.90
2018-07-25T06:24:06.755Z,16.77
2018-07-25T06:26:34.956Z,15.23
2018-07-25T06:29:03.176Z,15.93
2018-07-25T06:31:31.348Z,15.40
2018-07-25T06:33:59.538Z,15.80
2018-07-25T06:36:28.322Z,14.70
2018-07-25T06:38:56.500Z,14.90
2018-07-25T06:41:24.885Z,16.93
2018-07-25T06:43:53.186Z,16.93
2018-07-25T06:46:21.858Z,15.70
2018-07-25T06:48:50.038Z,16.93
2018-07-25T06:51:18.200Z,15.80
2018-07-25T06:53:46.465Z,16.17
2018-07-25T06:56:15.480Z,15.63
2018-07-25T06:58:43.891Z,15.43
2018-07-25T07:01:12.104Z,15.47
2018-07-25T07:03:40.309Z,15.33
2018-07-25T07:06:08.750Z,15.50
2018-07-25T07:08:36.998Z,13.80
2018-07-25T07:11:05.312Z,15.83
2018-07-25T07:13:33.720Z,17.73
2018-07-25T07:16:01.899Z,13.93
2018-07-25T07:18:30.084Z,13.60
2018-07-25T07:20:58.293Z,12.43
2018-07-25T07:23:26.483Z,12.87
2018-07-25T07:25:54.830Z,12.33
2018-07-25T07:28:22.960Z,12.60
2018-07-25T07:30:51.133Z,12.77
2018-07-25T07:33:19.356Z,10.93
2018-07-25T07:35:47.854Z,11.43
2018-07-25T07:38:16.016Z,10.87
2018-07-25T07:40:44.198Z,10.40
2018-07-25T07:43:12.411Z,10.50
2018-07-25T07:45:40.649Z,10.30
2018-07-25T07:48:08.847Z,10.93
2018-07-25T07:50:37.105Z,9.80
2018-07-25T07:53:05.858Z,9.37
2018-07-25T07:55:34.138Z,9.20
2018-07-25T07:58:02.441Z,8.77
2018-07-25T08:00:30.840Z,9.50
2018-07-25T08:02:59.096Z,9.83
2018-07-25T08:05:27.402Z,9.43
2018-07-25T08:07:55.680Z,8.87
2018-07-25T08:10:24.008Z,9.00
2018-07-25T08:12:52.349Z,9.10
2018-07-25T08:15:20.606Z,8.80
2018-07-25T08:17:48.914Z,8.83
2018-07-25T08:20:17.206Z,8.20
2018-07-25T08:22:45.362Z,8.80
2018-07-25T08:25:13.516Z,8.23
2018-07-25T08:27:41.687Z,8.10
2018-07-25T08:30:09.900Z,8.77
2018-07-25T08:32:38.126Z,8.27
2018-07-25T08:35:06.323Z,8.97
2018-07-25T08:37:34.507Z,8.17
2018-07-25T08:40:02.840Z,9.27
2018-07-25T08:42:31.422Z,7.57
2018-07-25T08:44:59.644Z,8.40
2018-07-25T08:47:27.803Z,8.63
2018-07-25T08:49:55.994Z,7.80
2018-07-25T08:52:24.292Z,7.93
2018-07-25T08:54:52.529Z,8.33
2018-07-25T08:57:20.699Z,7.83
2018-07-25T08:59:48.888Z,9.27
2018-07-25T09:02:17.076Z,11.70
2018-07-25T09:04:45.251Z,8.27
2018-07-25T09:07:13.535Z,8.30
2018-07-25T09:09:42.484Z,7.40
2018-07-25T09:12:11.037Z,7.10
2018-07-25T09:14:39.446Z,7.43
2018-07-25T09:17:11.412Z,7.50
2018-07-25T09:19:39.675Z,6.83
2018-07-25T09:22:07.860Z,6.87
2018-07-25T09:24:36.165Z,6.60
2018-07-25T09:27:04.736Z,8.97
2018-07-25T09:29:32.995Z,7.80
2018-07-25T09:32:01.272Z,7.10
2018-07-25T09:34:29.771Z,8.00
2018-07-25T09:36:58.707Z,7.27
2018-07-25T09:39:26.948Z,6.67
2018-07-25T09:41:55.282Z,6.87
2018-07-25T09:44:23.634Z,6.57
2018-07-25T09:46:52.042Z,6.50
2018-07-25T09:49:20.416Z,6.20
2018-07-25T09:51:49.160Z,7.50
2018-07-25T09:54:17.454Z,6.27
2018-07-25T09:56:45.825Z,8.30
2018-07-25T09:59:14.347Z,6.07
2018-07-25T10:01:42.744Z,6.50
2018-07-25T10:04:11.047Z,7.13
2018-07-25T10:06:39.452Z,5.83
2018-07-25T10:09:09.871Z,6.33
2018-07-25T10:11:38.359Z,6.30
2018-07-25T10:14:06.632Z,6.97
2018-07-25T10:16:34.897Z,6.67
2018-07-25T10:19:03.279Z,6.67
2018-07-25T10:21:31.546Z,5.67
2018-07-25T10:24:00.220Z,6.30
2018-07-25T10:26:28.571Z,6.83
2018-07-25T10:28:57.255Z,5.90
2018-07-25T10:31:25.628Z,6.40
2018-07-25T10:33:53.944Z,6.03
2018-07-25T10:36:22.260Z,8.30
2018-07-25T10:38:50.485Z,6.10
2018-07-25T10:41:19.070Z,5.83
2018-07-25T10:43:47.777Z,5.83
2018-07-25T10:46:18.952Z,6.90
2018-07-25T10:48:47.724Z,5.63
2018-07-25T10:51:16.031Z,5.43
2018-07-25T10:53:44.977Z,5.53
2018-07-25T10:56:13.319Z,5.60
2018-07-25T10:58:41.519Z,5.77
2018-07-25T11:01:09.775Z,5.87
2018-07-25T11:03:37.975Z,5.27
2018-07-25T11:06:06.219Z,5.50
2018-07-25T11:08:34.420Z,6.80
2018-07-25T11:11:02.612Z,6.40
2018-07-25T11:13:30.904Z,5.70
2018-07-25T11:15:59.131Z,6.43
2018-07-25T11:18:27.321Z,4.73
2018-07-25T11:20:55.569Z,4.60
2018-07-25T11:23:23.771Z,5.63
2018-07-25T11:25:52.287Z,5.37
2018-07-25T11:28:20.494Z,5.80
2018-07-25T11:30:48.772Z,5.50
2018-07-25T11:33:17.025Z,5.43
2018-07-25T11:35:45.369Z,5.90
2018-07-25T11:38:13.704Z,5.70
2018-07-25T11:40:41.861Z,6.13
2018-07-25T11:43:10.072Z,6.33
2018-07-25T11:45:38.325Z,6.60
2018-07-25T11:48:06.529Z,6.37
2018-07-25T11:50:35.378Z,7.50
2018-07-25T11:53:03.591Z,6.10
2018-07-25T11:55:32.017Z,6.77
2018-07-25T11:58:00.225Z,6.00
2018-07-25T12:00:28.537Z,6.73
2018-07-25T12:02:56.832Z,6.13
2018-07-25T12:05:25.057Z,6.00
2018-07-25T12:07:53.272Z,6.60
2018-07-25T12:10:22.331Z,6.83
2018-07-25T12:12:50.687Z,5.47
2018-07-25T12:15:18.720Z,5.73
2018-07-25T12:17:47.050Z,5.77
2018-07-25T12:20:15.388Z,7.13
2018-07-25T12:22:43.568Z,5.73
2018-07-25T12:25:11.756Z,6.07
2018-07-25T12:27:39.974Z,6.20
2018-07-25T12:30:08.582Z,5.70
2018-07-25T12:32:36.848Z,6.20
2018-07-25T12:35:05.160Z,5.83
2018-07-25T12:37:34.049Z,5.43
2018-07-25T12:40:02.273Z,5.40
2018-07-25T12:42:30.500Z,5.37
2018-07-25T12:44:58.765Z,5.10
2018-07-25T12:47:26.963Z,5.33
2018-07-25T12:49:55.275Z,5.30
2018-07-25T12:52:23.667Z,5.43
2018-07-25T12:54:51.983Z,6.00
2018-07-25T12:57:20.123Z,5.37
2018-07-25T12:59:48.863Z,5.77
2018-07-25T13:02:17.051Z,6.27
2018-07-25T13:04:46.102Z,5.20
2018-07-25T13:07:14.269Z,5.97
2018-07-25T13:09:48.456Z,5.73
2018-07-25T13:12:16.871Z,6.13
2018-07-25T13:14:45.099Z,6.37
2018-07-25T13:17:13.305Z,6.23
2018-07-25T13:19:42.216Z,5.87
2018-07-25T13:22:10.440Z,5.97
2018-07-25T13:24:38.647Z,5.83
2018-07-25T13:27:06.865Z,7.80
2018-07-25T13:29:35.069Z,5.53
2018-07-25T13:32:04.695Z,6.57
2018-07-25T13:34:32.974Z,5.60
2018-07-25T13:37:01.292Z,5.60
2018-07-25T13:39:29.470Z,7.50
2018-07-25T13:41:57.709Z,5.90
2018-07-25T13:44:25.947Z,5.30
2018-07-25T13:46:54.209Z,6.23
2018-07-25T13:49:22.593Z,5.80
2018-07-25T13:51:50.841Z,6.07
2018-07-25T13:54:19.081Z,5.53
2018-07-25T13:56:47.297Z,5.77
2018-07-25T13:59:15.573Z,6.40
2018-07-25T14:01:43.787Z,5.70
2018-07-25T14:04:11.987Z,6.33
2018-07-25T14:06:40.285Z,6.57
2018-07-25T14:09:10.028Z,5.73
2018-07-25T14:11:38.655Z,6.60
2018-07-25T14:14:07.044Z,6.43
2018-07-25T14:16:36.284Z,5.80
2018-07-25T14:19:04.618Z,6.63
2018-07-25T14:21:32.952Z,5.73
2018-07-25T14:24:01.540Z,6.00
2018-07-25T14:26:29.572Z,6.20
2018-07-25T14:28:58.074Z,5.97
2018-07-25T14:31:26.572Z,6.43
2018-07-25T14:33:55.751Z,7.50
2018-07-25T14:36:24.393Z,6.77
2018-07-25T14:38:52.582Z,7.00
2018-07-25T14:41:21.251Z,5.87
2018-07-25T14:43:50.115Z,6.97
2018-07-25T14:46:18.577Z,5.53
2018-07-25T14:48:47.170Z,5.93
2018-07-25T14:51:15.527Z,7.63
2018-07-25T14:53:43.671Z,7.13
2018-07-25T14:56:11.934Z,5.50
2018-07-25T14:58:40.383Z,5.60
2018-07-25T15:01:08.715Z,5.50
2018-07-25T15:03:37.003Z,5.90
2018-07-25T15:06:05.266Z,5.20
2018-07-25T15:08:33.481Z,5.27
2018-07-25T15:11:01.728Z,4.90
2018-07-25T15:13:30.104Z,4.60
2018-07-25T15:16:01.135Z,4.77
2018-07-25T15:18:29.441Z,5.33
2018-07-25T15:20:57.652Z,5.40
2018-07-25T15:23:37.721Z,6.70
2018-07-25T15:26:05.925Z,6.80
2018-07-25T15:28:34.128Z,5.30
2018-07-25T15:31:02.301Z,6.20
2018-07-25T15:33:30.490Z,5.53
2018-07-25T15:35:58.828Z,5.40
2018-07-25T15:38:27.531Z,5.53
2018-07-25T15:40:56.066Z,6.67
2018-07-25T15:43:24.810Z,5.23
2018-07-25T15:45:52.967Z,5.37
2018-07-25T15:48:21.246Z,5.10
2018-07-25T15:50:49.450Z,5.17
2018-07-25T15:53:17.641Z,6.03
2018-07-25T15:55:45.945Z,5.37
2018-07-25T15:58:14.618Z,5.17
2018-07-25T16:00:43.803Z,4.73
2018-07-25T16:03:12.072Z,4.40
2018-07-25T16:05:40.628Z,4.60
2018-07-25T16:08:08.916Z,4.20
2018-07-25T16:10:37.116Z,4.50
2018-07-25T16:13:05.745Z,4.50
2018-07-25T16:15:34.067Z,5.00
2018-07-25T16:18:02.296Z,6.03
2018-07-25T16:20:30.599Z,4.97
2018-07-25T16:22:58.893Z,5.00
2018-07-25T16:25:27.132Z,5.07
2018-07-25T16:27:55.601Z,5.37
2018-07-25T16:30:23.793Z,5.27
2018-07-25T16:32:52.633Z,5.50
2018-07-25T16:35:21.095Z,5.30
2018-07-25T16:37:50.877Z,6.07
2018-07-25T16:40:23.432Z,5.57
2018-07-25T16:42:51.658Z,5.80
2018-07-25T16:45:19.852Z,5.40
2018-07-25T16:47:51.817Z,8.70
2018-07-25T16:50:19.978Z,6.20
2018-07-25T16:52:48.561Z,6.67
2018-07-25T16:55:19.062Z,5.90
2018-07-25T16:57:47.542Z,6.00
2018-07-25T17:00:17.054Z,5.90
2018-07-25T17:02:48.474Z,5.80
2018-07-25T17:05:16.719Z,5.67
2018-07-25T17:07:45.455Z,6.20
2018-07-25T17:10:15.908Z,5.80
2018-07-25T17:12:48.751Z,5.53
2018-07-25T17:15:17.328Z,6.13
2018-07-25T17:17:45.579Z,5.73
2018-07-25T17:20:15.676Z,6.10
2018-07-25T17:22:45.186Z,5.50
2018-07-25T17:25:23.802Z,5.70
2018-07-25T17:27:52.058Z,6.60
2018-07-25T17:30:27.928Z,5.90
2018-07-25T17:32:56.158Z,5.30
2018-07-25T17:35:25.100Z,7.60
2018-07-25T17:37:53.547Z,5.60
2018-07-25T17:40:22.151Z,5.67
2018-07-25T17:43:23.062Z,5.67
2018-07-25T17:45:51.879Z,5.87
2018-07-25T17:48:47.687Z,5.60
2018-07-25T17:51:15.925Z,5.70
2018-07-25T17:53:44.155Z,6.60
2018-07-25T17:56:12.376Z,9.63
2018-07-25T17:58:40.589Z,9.00
2018-07-25T18:01:08.828Z,5.93
2018-07-25T18:03:37.342Z,7.30
2018-07-25T18:06:09.696Z,5.87
2018-07-25T18:08:54.122Z,6.33
2018-07-25T18:11:23.323Z,7.17
2018-07-25T18:13:56.862Z,6.70
2018-07-25T18:16:25.152Z,5.87
2018-07-25T18:18:53.559Z,9.87
2018-07-25T18:21:24.041Z,6.27
2018-07-25T18:23:52.381Z,6.97
2018-07-25T18:26:20.696Z,6.10
2018-07-25T18:28:50.333Z,8.63
2018-07-25T18:31:19.024Z,5.90
2018-07-25T18:33:47.625Z,6.60
2018-07-25T18:36:15.940Z,6.30
2018-07-25T18:38:45.448Z,6.60
2018-07-25T18:41:13.734Z,6.97
2018-07-25T18:43:42.033Z,6.47
2018-07-25T18:46:11.103Z,7.07
2018-07-25T18:48:39.471Z,6.07
2018-07-25T18:51:07.896Z,6.53
2018-07-25T18:53:36.993Z,7.13
2018-07-25T18:56:05.385Z,6.77
2018-07-25T18:58:33.621Z,8.17
2018-07-25T19:01:01.864Z,7.47
2018-07-25T19:03:30.253Z,7.97
2018-07-25T19:05:58.508Z,7.60
2018-07-25T19:08:26.962Z,7.63
2018-07-25T19:10:55.323Z,7.20
2018-07-25T19:13:28.696Z,8.30
2018-07-25T19:15:56.928Z,8.47
2018-07-25T19:18:25.182Z,7.87
2018-07-25T19:20:53.433Z,7.77
2018-07-25T19:23:21.651Z,7.50
2018-07-25T19:25:49.860Z,7.40
2018-07-25T19:28:18.115Z,7.93
2018-07-25T19:30:46.383Z,8.17
2018-07-25T19:33:14.596Z,7.83
2018-07-25T19:35:42.986Z,7.50
2018-07-25T19:38:43.844Z,7.53
2018-07-25T19:41:17.169Z,8.07
2018-07-25T19:43:46.417Z,7.97
2018-07-25T19:46:14.997Z,7.80
2018-07-25T19:48:43.420Z,8.40
2018-07-25T19:51:11.805Z,8.13
2018-07-25T19:53:41.183Z,8.60
2018-07-25T19:56:09.621Z,8.50
2018-07-25T19:58:48.514Z,8.40
2018-07-25T20:01:17.574Z,7.90
2018-07-25T20:03:47.888Z,8.77
2018-07-25T20:06:20.104Z,8.80
2018-07-25T20:08:48.712Z,11.10
2018-07-25T20:11:17.315Z,8.37
2018-07-25T20:13:51.085Z,8.70
2018-07-25T20:16:19.609Z,8.97
2018-07-25T20:18:47.881Z,9.07
2018-07-25T20:21:16.287Z,9.40
2018-07-25T20:23:45.629Z,9.97
2018-07-25T20:26:13.941Z,8.37
2018-07-25T20:28:42.394Z,8.60
2018-07-25T20:31:20.685Z,8.70
2018-07-25T20:33:49.136Z,9.20
2018-07-25T20:36:17.546Z,10.37
2018-07-25T20:39:18.991Z,9.33
2018-07-25T20:41:47.628Z,9.30
2018-07-25T20:44:15.963Z,9.73
2018-07-25T20:46:49.746Z,8.73
2018-07-25T20:49:18.837Z,8.67
2018-07-25T20:51:47.212Z,8.13
2018-07-25T20:54:15.552Z,8.73
2018-07-25T20:56:44.545Z,9.17
2018-07-25T20:59:12.904Z,10.30
2018-07-25T21:01:41.176Z,9.47
2018-07-25T21:04:14.361Z,10.33
2018-07-25T21:06:42.840Z,17.17
2018-07-25T21:09:12.152Z,9.13
2018-07-25T21:11:42.165Z,9.17
2018-07-25T21:14:11.808Z,10.97
2018-07-25T21:16:41.458Z,9.97
2018-07-25T21:19:15.247Z,10.10
2018-07-25T21:21:43.724Z,10.03
2018-07-25T21:24:12.108Z,9.80
2018-07-25T21:26:40.468Z,10.13
2018-07-25T21:29:10.755Z,9.50
2018-07-25T21:31:42.891Z,8.93
2018-07-25T21:34:11.522Z,10.10
2018-07-25T21:36:39.917Z,10.53
2018-07-25T21:39:10.000Z,9.90
2018-07-25T21:41:38.921Z,10.10
2018-07-25T21:44:07.356Z,10.73
2018-07-25T21:46:36.019Z,10.30
2018-07-25T21:49:04.749Z,10.83
2018-07-25T21:51:33.501Z,10.17
2018-07-25T21:54:08.314Z,9.50
2018-07-25T21:56:37.059Z,10.93
2018-07-25T21:59:05.755Z,10.77
2018-07-25T22:01:34.319Z,10.43
2018-07-25T22:04:02.969Z,12.47
2018-07-25T22:06:32.127Z,11.03
2018-07-25T22:09:00.626Z,10.57
2018-07-25T22:11:28.849Z,10.33
2018-07-25T22:13:58.120Z,10.53
2018-07-25T22:16:27.558Z,11.17
2018-07-25T22:18:56.012Z,11.03
2018-07-25T22:21:24.215Z,10.73
2018-07-25T22:23:52.385Z,10.83
2018-07-25T22:26:20.555Z,10.30
2018-07-25T22:28:48.755Z,11.03
2018-07-25T22:31:19.056Z,11.07
2018-07-25T22:33:47.300Z,11.30
2018-07-25T22:36:15.492Z,11.03
2018-07-25T22:38:43.775Z,11.47
2018-07-25T22:41:18.199Z,12.53
2018-07-25T22:43:46.435Z,12.23
2018-07-25T22:46:14.685Z,12.17
2018-07-25T22:48:42.921Z,12.57
2018-07-25T22:51:11.195Z,12.60
2018-07-25T22:53:39.750Z,11.60
2018-07-25T22:56:07.995Z,11.37
2018-07-25T22:58:36.403Z,13.10
2018-07-25T23:01:04.664Z,11.67
2018-07-25T23:03:32.910Z,12.40
2018-07-25T23:06:01.149Z,13.37
2018-07-25T23:08:29.489Z,12.47
2018-07-25T23:10:57.809Z,11.30
2018-07-25T23:13:26.074Z,12.13
2018-07-25T23:15:54.359Z,11.97
2018-07-25T23:18:22.621Z,11.87
2018-07-25T23:20:50.901Z,11.73
2018-07-25T23:23:19.172Z,12.50
2018-07-25T23:25:47.439Z,11.77
2018-07-25T23:28:15.695Z,12.40
2018-07-25T23:42:06.744Z,14.33
2018-07-25T23:44:34.978Z,12.27
2018-07-25T23:49:53.736Z,13.07
2018-07-25T23:52:22.007Z,13.80
2018-07-25T23:54:50.218Z,13.47
2018-07-25T23:57:18.428Z,13.20
2018-07-25T23:59:46.758Z,13.57
